Terminal Aerodrome Forecast
Issued by NWS

Home | Current Version | Previous Version | Text Only | Print | Product List | Glossary On
Versions: 1 2 3 4 5 6 7 8 9 10 11 12 13 14 15 16 17 18 19 20
000
FTUS41 KRNK 061952 AAA
TAFLWB
TAF AMD
KLWB 061952Z 0620/0718 28008KT 6SM -SHRA OVC035
     FM062100 36010G20KT P6SM VCSH OVC030
     FM062200 33010G18KT P6SM OVC040
     FM070100 32006KT P6SM BKN040
     FM071400 28012G18KT P6SM SCT250=

USA.gov is the U.S. government's official web portal to all federal, state and local government web resources and services.